PWSweather.com
Personal Weather Stations
Station Observations
SEVANL01
SevillaES 41004

SevillaES 41004

Lat: 37.383633, Lon: -5.985787

Elevation: 19.685

Station Type: Davis Vantage Pro2

Latest ConditionsUpdated 9:40:00 PM GMT+01:01 Wednesday, Apr 24, 2019
Currently Today's Max Today's Min Today's Average
Temperature 60.4°F15.8°C 63.8°F17.7°C 52.4°F11.3°C 57.7°F14.3°C
Dew Point 57.8°F14.3°C 57.8°F14.3°C 45.5°F7.5°C 52.1°F11.2°C
Winds 9.4 mph SW15.1 kmh SW 14.5 mph -23.3 kmh - - 6.9 mph 11.1 kmh
Wind Gusts 20.0 mph32.2 kmh 33.0 mph53.1 kmh - -
Humidity 91% 91% 71% 82%
Pressure 29.85 in1010.8 mb 29.85 in1010.8 mb 29.75 in1007.5 mb -
Precipitation - 0.27 in6.9 mm - -
Hour Temp Dew Point Humidity Winds Wind Gusts Pressure Precip Precip Rate Daily Precip Total
09:40 PM 60.4°F15.8°C 57.8°F14.3°C 91% 9.4 mph SW15.1 kmh SW 20.0 mph32.2 kmh 29.85 in1010.8 mb 0.07 in1.8 mm 0.09 in2.3 mm 0.27 in6.9 mm
09:20 PM 60.4°F15.8°C 57.5°F14.2°C 90% 9.8 mph SW15.8 kmh SW 18.0 mph29.0 kmh 29.84 in1010.5 mb 0.04 in1.0 mm 0.06 in1.5 mm 0.23 in5.8 mm
09:00 PM 60.1°F15.6°C 57.5°F14.2°C 91% 8.5 mph SW13.7 kmh SW 18.0 mph29.0 kmh 29.84 in1010.5 mb 0.02 in0.5 mm 0.00 in0.0 mm 0.20 in5.1 mm
08:40 PM 60.2°F15.7°C 57.3°F14.1°C 90% 9.7 mph SW15.6 kmh SW 23.0 mph37.0 kmh 29.84 in1010.5 mb 0.02 in0.5 mm 0.03 in0.8 mm 0.20 in5.1 mm
08:20 PM 60.4°F15.8°C 57.1°F13.9°C 89% 9.4 mph SW15.1 kmh SW 20.0 mph32.2 kmh 29.83 in1010.2 mb 0.01 in0.3 mm 0.03 in0.8 mm 0.19 in4.8 mm
08:00 PM 60.9°F16.1°C 57.0°F13.9°C 87% 8.1 mph SW13.0 kmh SW 20.0 mph32.2 kmh 29.82 in1009.8 mb 0.00 in0.0 mm 0.00 in0.0 mm 0.18 in4.6 mm
07:40 PM 61.3°F16.3°C 56.8°F13.8°C 85% 11.0 mph SW17.7 kmh SW 23.0 mph37.0 kmh 29.82 in1009.8 mb 0.01 in0.3 mm 0.00 in0.0 mm 0.18 in4.6 mm
07:20 PM 61.4°F16.3°C 56.8°F13.8°C 85% 11.4 mph SW18.3 kmh SW 24.0 mph38.6 kmh 29.82 in1009.8 mb 0.01 in0.3 mm 0.00 in0.0 mm 0.18 in4.6 mm
07:00 PM 61.6°F16.4°C 56.4°F13.6°C 83% 12.1 mph SW19.5 kmh SW 26.0 mph41.8 kmh 29.82 in1009.8 mb 0.01 in0.3 mm 0.02 in0.5 mm 0.18 in4.6 mm
06:40 PM 62.0°F16.7°C 56.8°F13.8°C 83% 11.2 mph SW18.0 kmh SW 27.0 mph43.5 kmh 29.82 in1009.8 mb 0.00 in0.0 mm 0.00 in0.0 mm 0.17 in4.3 mm
06:20 PM 61.7°F16.5°C 56.8°F13.8°C 84% 12.0 mph SW19.3 kmh SW 25.0 mph40.2 kmh 29.82 in1009.8 mb 0.00 in0.0 mm 0.00 in0.0 mm 0.17 in4.3 mm
06:00 PM 61.1°F16.2°C 56.9°F13.8°C 86% 11.4 mph SW18.3 kmh SW 33.0 mph53.1 kmh 29.82 in1009.8 mb 0.01 in0.3 mm 0.00 in0.0 mm 0.17 in4.3 mm
05:40 PM 60.4°F15.8°C 56.8°F13.8°C 88% 11.1 mph SW17.9 kmh SW 23.0 mph37.0 kmh 29.82 in1009.8 mb 0.02 in0.5 mm 0.00 in0.0 mm 0.17 in4.3 mm
05:20 PM 59.7°F15.4°C 56.5°F13.6°C 89% 10.1 mph SW16.3 kmh SW 23.0 mph37.0 kmh 29.82 in1009.8 mb 0.03 in0.8 mm 0.00 in0.0 mm 0.17 in4.3 mm
05:00 PM 59.3°F15.2°C 56.1°F13.4°C 89% 12.9 mph SW20.8 kmh SW 22.0 mph35.4 kmh 29.82 in1009.8 mb 0.03 in0.8 mm 0.02 in0.5 mm 0.17 in4.3 mm
04:40 PM 60.4°F15.8°C 56.5°F13.6°C 87% 9.0 mph SW14.5 kmh SW 19.0 mph30.6 kmh 29.81 in1009.5 mb 0.02 in0.5 mm 0.00 in0.0 mm 0.15 in3.8 mm
04:20 PM 59.8°F15.4°C 56.2°F13.4°C 88% 10.4 mph SW16.7 kmh SW 19.0 mph30.6 kmh 29.81 in1009.5 mb 0.02 in0.5 mm 0.00 in0.0 mm 0.14 in3.6 mm
04:00 PM 60.8°F16.0°C 56.3°F13.5°C 85% 9.2 mph SW14.8 kmh SW 26.0 mph41.8 kmh 29.82 in1009.8 mb 0.03 in0.8 mm 0.00 in0.0 mm 0.13 in3.3 mm
03:40 PM 61.3°F16.3°C 57.1°F13.9°C 86% 9.9 mph SW15.9 kmh SW 21.0 mph33.8 kmh 29.81 in1009.5 mb 0.07 in1.8 mm 0.00 in0.0 mm 0.13 in3.3 mm
03:20 PM 59.2°F15.1°C 56.3°F13.5°C 90% 9.8 mph SW15.8 kmh SW 21.0 mph33.8 kmh 29.82 in1009.8 mb 0.07 in1.8 mm 0.06 in1.5 mm 0.13 in3.3 mm
03:00 PM 58.9°F14.9°C 55.0°F12.8°C 87% 14.5 mph SW23.3 kmh SW 29.0 mph46.7 kmh 29.83 in1010.2 mb 0.05 in1.3 mm 0.06 in1.5 mm 0.10 in2.5 mm
02:40 PM 62.1°F16.7°C 55.9°F13.3°C 80% 11.8 mph SW19.0 kmh SW 27.0 mph43.5 kmh 29.82 in1009.8 mb 0.01 in0.3 mm 0.00 in0.0 mm 0.06 in1.5 mm
02:20 PM 61.3°F16.3°C 56.1°F13.4°C 83% 11.3 mph SW18.2 kmh SW 25.0 mph40.2 kmh 29.81 in1009.5 mb 0.03 in0.8 mm 0.00 in0.0 mm 0.06 in1.5 mm
02:00 PM 59.4°F15.2°C 55.2°F12.9°C 86% 13.9 mph SW22.4 kmh SW 25.0 mph40.2 kmh 29.82 in1009.8 mb 0.03 in0.8 mm 0.02 in0.5 mm 0.06 in1.5 mm
01:40 PM 60.4°F15.8°C 54.5°F12.5°C 81% 11.0 mph SW17.7 kmh SW 27.0 mph43.5 kmh 29.82 in1009.8 mb 0.02 in0.5 mm 0.00 in0.0 mm 0.05 in1.3 mm
01:20 PM 63.8°F17.7°C 54.6°F12.6°C 72% 11.9 mph SW19.2 kmh SW 30.0 mph48.3 kmh 29.80 in1009.1 mb 0.02 in0.5 mm 0.00 in0.0 mm 0.02 in0.5 mm
01:00 PM 62.1°F16.7°C 55.9°F13.3°C 80% 7.7 mph SSW12.4 kmh SSW 20.0 mph32.2 kmh 29.81 in1009.5 mb 0.02 in0.5 mm 0.00 in0.0 mm 0.02 in0.5 mm
12:40 PM 59.2°F15.1°C 54.7°F12.6°C 85% 10.5 mph SW16.9 kmh SW 25.0 mph40.2 kmh 29.82 in1009.8 mb 0.02 in0.5 mm 0.06 in1.5 mm 0.02 in0.5 mm
12:20 PM 60.7°F15.9°C 53.4°F11.9°C 77% 10.6 mph SW17.1 kmh SW 20.0 mph32.2 kmh 29.82 in1009.8 mb 0.00 in0.0 mm 0.00 in0.0 mm 0.00 in0.0 mm
12:00 PM 60.9°F16.1°C 54.0°F12.2°C 78% 9.2 mph SW14.8 kmh SW 20.0 mph32.2 kmh 29.82 in1009.8 mb 0.00 in0.0 mm 0.00 in0.0 mm 0.00 in0.0 mm
11:40 AM 60.3°F15.7°C 53.4°F11.9°C 78% 8.2 mph SSW13.2 kmh SSW 20.0 mph32.2 kmh 29.81 in1009.5 mb 0.00 in0.0 mm 0.00 in0.0 mm 0.00 in0.0 mm
11:20 AM 60.6°F15.9°C 53.7°F12.1°C 78% 8.7 mph SW14.0 kmh SW 26.0 mph41.8 kmh 29.82 in1009.8 mb 0.00 in0.0 mm 0.00 in0.0 mm 0.00 in0.0 mm
11:00 AM 60.6°F15.9°C 53.0°F11.7°C 76% 10.0 mph SW16.1 kmh SW 20.0 mph32.2 kmh 29.81 in1009.5 mb 0.00 in0.0 mm 0.00 in0.0 mm 0.00 in0.0 mm
10:40 AM 61.9°F16.6°C 52.4°F11.3°C 71% 9.7 mph SW15.6 kmh SW 20.0 mph32.2 kmh 29.80 in1009.1 mb 0.00 in0.0 mm 0.00 in0.0 mm 0.00 in0.0 mm
10:20 AM 61.7°F16.5°C 52.6°F11.4°C 72% 9.3 mph SW15.0 kmh SW 19.0 mph30.6 kmh 29.80 in1009.1 mb 0.00 in0.0 mm 0.00 in0.0 mm 0.00 in0.0 mm
10:00 AM 61.1°F16.2°C 53.1°F11.7°C 75% 8.1 mph SW13.0 kmh SW 18.0 mph29.0 kmh 29.79 in1008.8 mb 0.00 in0.0 mm 0.00 in0.0 mm 0.00 in0.0 mm
09:40 AM 60.2°F15.7°C 53.0°F11.7°C 77% 5.3 mph SW8.5 kmh SW 19.0 mph30.6 kmh 29.79 in1008.8 mb 0.00 in0.0 mm 0.00 in0.0 mm 0.00 in0.0 mm
09:20 AM 58.7°F14.8°C 52.5°F11.4°C 80% 4.9 mph SW7.9 kmh SW 13.0 mph20.9 kmh 29.79 in1008.8 mb 0.00 in0.0 mm 0.00 in0.0 mm 0.00 in0.0 mm
09:00 AM 57.2°F14.0°C 51.8°F11.0°C 82% 4.7 mph SSW7.6 kmh SSW 13.0 mph20.9 kmh 29.79 in1008.8 mb 0.00 in0.0 mm 0.00 in0.0 mm 0.00 in0.0 mm
08:40 AM 56.3°F13.5°C 50.9°F10.5°C 82% 4.6 mph SW7.4 kmh SW 11.0 mph17.7 kmh 29.78 in1008.5 mb 0.00 in0.0 mm 0.00 in0.0 mm 0.00 in0.0 mm
08:20 AM 55.5°F13.1°C 50.4°F10.2°C 83% 3.0 mph SSW4.8 kmh SSW 9.0 mph14.5 kmh 29.78 in1008.5 mb 0.00 in0.0 mm 0.00 in0.0 mm 0.00 in0.0 mm
08:00 AM 54.5°F12.5°C 49.1°F9.5°C 82% 4.7 mph S7.6 kmh S 9.0 mph14.5 kmh 29.78 in1008.5 mb 0.00 in0.0 mm 0.00 in0.0 mm 0.00 in0.0 mm
07:40 AM 54.4°F12.4°C 49.7°F9.8°C 84% 2.1 mph S3.4 kmh S 8.0 mph12.9 kmh 29.78 in1008.5 mb 0.00 in0.0 mm 0.00 in0.0 mm 0.00 in0.0 mm
07:20 AM 53.6°F12.0°C 49.2°F9.6°C 85% 3.9 mph S6.3 kmh S 7.0 mph11.3 kmh 29.77 in1008.1 mb 0.00 in0.0 mm 0.00 in0.0 mm 0.00 in0.0 mm
07:00 AM 53.0°F11.7°C 48.6°F9.2°C 85% 3.3 mph SSW5.3 kmh SSW 8.0 mph12.9 kmh 29.77 in1008.1 mb 0.00 in0.0 mm 0.00 in0.0 mm 0.00 in0.0 mm
06:40 AM 52.5°F11.4°C 48.4°F9.1°C 86% 2.9 mph SW4.7 kmh SW 6.0 mph9.7 kmh 29.76 in1007.8 mb 0.00 in0.0 mm 0.00 in0.0 mm 0.00 in0.0 mm
06:20 AM 52.8°F11.6°C 48.4°F9.1°C 85% 3.0 mph SW4.8 kmh SW 8.0 mph12.9 kmh 29.75 in1007.5 mb 0.00 in0.0 mm 0.00 in0.0 mm 0.00 in0.0 mm
06:00 AM 52.7°F11.5°C 47.7°F8.7°C 83% 4.0 mph SSW6.4 kmh SSW 9.0 mph14.5 kmh 29.76 in1007.8 mb 0.00 in0.0 mm 0.00 in0.0 mm 0.00 in0.0 mm
05:40 AM 52.7°F11.5°C 47.7°F8.7°C 83% 3.7 mph SSW6.0 kmh SSW 10.0 mph16.1 kmh 29.75 in1007.5 mb 0.00 in0.0 mm 0.00 in0.0 mm 0.00 in0.0 mm
05:20 AM 52.7°F11.5°C 47.0°F8.3°C 81% 2.0 mph SSW3.2 kmh SSW 5.0 mph8.0 kmh 29.75 in1007.5 mb 0.00 in0.0 mm 0.00 in0.0 mm 0.00 in0.0 mm
05:00 AM 52.6°F11.4°C 46.6°F8.1°C 80% 1.6 mph S2.6 kmh S 5.0 mph8.0 kmh 29.75 in1007.5 mb 0.00 in0.0 mm 0.00 in0.0 mm 0.00 in0.0 mm
04:40 AM 52.5°F11.4°C 46.5°F8.1°C 80% 1.0 mph S1.6 kmh S 3.0 mph4.8 kmh 29.75 in1007.5 mb 0.00 in0.0 mm 0.00 in0.0 mm 0.00 in0.0 mm
04:20 AM 52.4°F11.3°C 46.4°F8.0°C 80% 2.0 mph S3.2 kmh S 5.0 mph8.0 kmh 29.75 in1007.5 mb 0.00 in0.0 mm 0.00 in0.0 mm 0.00 in0.0 mm
04:00 AM 52.6°F11.4°C 46.6°F8.1°C 80% 2.2 mph S3.5 kmh S 8.0 mph12.9 kmh 29.75 in1007.5 mb 0.00 in0.0 mm 0.00 in0.0 mm 0.00 in0.0 mm
03:40 AM 52.8°F11.6°C 46.5°F8.1°C 79% 0.8 mph S1.3 kmh S 2.0 mph3.2 kmh 29.76 in1007.8 mb 0.00 in0.0 mm 0.00 in0.0 mm 0.00 in0.0 mm
03:20 AM 52.9°F11.6°C 46.6°F8.1°C 79% 0.8 mph SW1.3 kmh SW 3.0 mph4.8 kmh 29.75 in1007.5 mb 0.00 in0.0 mm 0.00 in0.0 mm 0.00 in0.0 mm
03:00 AM 52.9°F11.6°C 46.6°F8.1°C 79% 1.9 mph SW3.1 kmh SW 4.0 mph6.4 kmh 29.76 in1007.8 mb 0.00 in0.0 mm 0.00 in0.0 mm 0.00 in0.0 mm
02:40 AM 53.0°F11.7°C 46.3°F7.9°C 78% 1.0 mph SW1.6 kmh SW 3.0 mph4.8 kmh 29.76 in1007.8 mb 0.00 in0.0 mm 0.00 in0.0 mm 0.00 in0.0 mm
02:20 AM 53.2°F11.8°C 46.5°F8.1°C 78% 1.7 mph SW2.7 kmh SW 5.0 mph8.0 kmh 29.76 in1007.8 mb 0.00 in0.0 mm 0.00 in0.0 mm 0.00 in0.0 mm
02:00 AM 53.7°F12.1°C 46.3°F7.9°C 76% 1.0 mph SW1.6 kmh SW 4.0 mph6.4 kmh 29.77 in1008.1 mb 0.00 in0.0 mm 0.00 in0.0 mm 0.00 in0.0 mm
01:40 AM 54.2°F12.3°C 45.7°F7.6°C 73% 2.0 mph WSW3.2 kmh WSW 4.0 mph6.4 kmh 29.76 in1007.8 mb 0.00 in0.0 mm 0.00 in0.0 mm 0.00 in0.0 mm
01:20 AM 54.0°F12.2°C 45.5°F7.5°C 73% 3.0 mph WSW4.8 kmh WSW 6.0 mph9.7 kmh 29.76 in1007.8 mb 0.00 in0.0 mm 0.00 in0.0 mm 0.00 in0.0 mm
01:00 AM 54.3°F12.4°C 45.8°F7.7°C 73% 3.6 mph SW5.8 kmh SW 10.0 mph16.1 kmh 29.75 in1007.5 mb 0.00 in0.0 mm 0.00 in0.0 mm 0.00 in0.0 mm
12:40 AM 54.5°F12.5°C 45.7°F7.6°C 72% 3.2 mph WSW5.1 kmh WSW 8.0 mph12.9 kmh 29.77 in1008.1 mb 0.00 in0.0 mm 0.00 in0.0 mm 0.00 in0.0 mm
12:20 AM 54.4°F12.4°C 45.6°F7.6°C 72% 4.0 mph WSW6.4 kmh WSW 10.0 mph16.1 kmh 29.77 in1008.1 mb 0.00 in0.0 mm 0.00 in0.0 mm 0.00 in0.0 mm
12:00 AM 54.3°F12.4°C 45.8°F7.7°C 73% 3.9 mph WSW6.3 kmh WSW 9.0 mph14.5 kmh 29.76 in1007.8 mb 0.00 in0.0 mm 0.00 in0.0 mm 0.00 in0.0 mm